| time (UTC) | temp C | wind direction | speed KPH | gust KPH | rain 1hr cm | rain 24hr cm | rain mn cm | humidity % | barometer mb |
| 20260831025714 | 16 | 173 | 0.0 | 0.0 | 0.00 | 0.00 | 0.33 | 83 | 1014.9 |
| 20260831025220 | 16 | 199 | 1.6 | 0.0 | 0.00 | 0.00 | 0.33 | 83 | 1014.9 |
| 20260831024727 | 16 | 260 | 3.2 | 0.0 | 0.00 | 0.00 | 0.30 | 83 | 1014.9 |
| 20260831024215 | 16 | 252 | 6.4 | 0.0 | 0.00 | 0.00 | 0.30 | 82 | 1015.5 |
| 20260831023714 | 16 | 276 | 11.3 | 0.0 | 0.00 | 0.00 | 0.28 | 82 | 1015.5 |
| 20260831023218 | 16 | 284 | 17.7 | 0.0 | 0.00 | 0.00 | 0.25 | 82 | 1015.5 |
| 20260831022706 | 16 | 252 | 20.9 | 0.0 | 0.00 | 0.00 | 0.23 | 81 | 1015.7 |
| 20260831022210 | 16 | 360 | 22.5 | 0.0 | 0.00 | 0.00 | 0.15 | 81 | 1015.7 |
| 20260831021723 | 17 | 276 | 22.5 | 0.0 | 0.00 | 0.00 | 0.05 | 80 | 1015.7 |
| 20260831021211 | 17 | 279 | 22.5 | 0.0 | 0.00 | 0.00 | 0.00 | 79 | 1014.9 |
| 20260831020709 | 17 | 302 | 20.9 | 0.0 | 0.00 | 0.00 | 0.00 | 80 | 1014.9 |
| 20260831020223 | 16 | 299 | 14.5 | 0.0 | 0.00 | 0.00 | 0.00 | 81 | 1014.9 |
| 20260831015712 | 16 | 360 | 4.8 | 0.0 | 0.00 | 0.00 | 0.00 | 81 | 1012.6 |
| 20260831015206 | 16 | 151 | 0.0 | 0.0 | 0.00 | 0.00 | 0.00 | 80 | 1012.6 |
| 20260831014713 | 16 | 360 | 0.0 | 0.0 | 0.00 | 0.00 | 0.00 | 80 | 1012.6 |
| 20260831014213 | 16 | 203 | 0.0 | 0.0 | 0.00 | 0.00 | 0.00 | 79 | 1012.2 |
| 20260831013714 | 16 | 209 | 0.0 | 0.0 | 0.00 | 0.00 | 0.00 | 79 | 1012.2 |
| 20260831013204 | 16 | 210 | 0.0 | 0.0 | 0.00 | 0.00 | 0.00 | 79 | 1012.2 |
| 20260831012715 | 16 | 210 | 0.0 | 0.0 | 0.00 | 0.00 | 0.00 | 79 | 1012.6 |
| 20260831012221 | 16 | 210 | 0.0 | 0.0 | 0.00 | 0.00 | 0.00 | 79 | 1012.6 |
| 20260831011709 | 16 | 210 | 0.0 | 0.0 | 0.00 | 0.00 | 0.00 | 79 | 1012.6 |
| 20260831011212 | 16 | 210 | 0.0 | 0.0 | 0.00 | 0.00 | 0.00 | 80 | 1012.7 |
| 20260831010715 | 16 | 210 | 0.0 | 0.0 | 0.00 | 0.00 | 0.00 | 80 | 1012.7 |
| 20260831010220 | 16 | 210 | 0.0 | 0.0 | 0.00 | 0.00 | 0.00 | 80 | 1012.7 |
| 20260831005711 | 16 | 211 | 0.0 | 0.0 | 0.00 | 0.00 | 0.00 | 79 | 1012.8 |
| 20260831005214 | 16 | 213 | 0.0 | 0.0 | 0.00 | 0.00 | 0.00 | 79 | 1012.8 |
| 20260831004720 | 16 | 213 | 0.0 | 0.0 | 0.00 | 0.00 | 0.00 | 79 | 1012.8 |
| 20260831004221 | 16 | 230 | 0.0 | 0.0 | 0.00 | 0.00 | 0.00 | 78 | 1013.0 |
| 20260831003720 | 16 | 231 | 0.0 | 0.0 | 0.00 | 0.00 | 0.00 | 78 | 1013.0 |
| 20260831003208 | 16 | 232 | 0.0 | 0.0 | 0.00 | 0.00 | 0.00 | 77 | 1013.0 |
| 20260831002715 | 16 | 232 | 0.0 | 0.0 | 0.00 | 0.00 | 0.00 | 77 | 1013.2 |
| 20260831002223 | 16 | 232 | 0.0 | 0.0 | 0.00 | 0.00 | 0.00 | 77 | 1013.2 |
| 20260831001722 | 16 | 232 | 0.0 | 0.0 | 0.00 | 0.00 | 0.00 | 77 | 1013.2 |
| 20260831001221 | 17 | 232 | 0.0 | 0.0 | 0.00 | 0.00 | 0.00 | 76 | 1013.2 |
| 20260831000726 | 17 | 238 | 0.0 | 0.0 | 0.00 | 0.00 | 0.00 | 76 | 1013.2 |
| 20260831000208 | 17 | 234 | 0.0 | 0.0 | 0.00 | 0.00 | 0.00 | 76 | 1013.2 |
| 20260830235720 | 17 | 232 | 0.0 | 0.0 | 0.00 | 0.00 | 0.00 | 76 | 1013.2 |
| 20260830235225 | 17 | 232 | 0.0 | 0.0 | 0.00 | 0.00 | 0.00 | 76 | 1013.2 |
| 20260830234714 | 17 | 232 | 0.0 | 0.0 | 0.00 | 0.00 | 0.00 | 75 | 1013.2 |
| 20260830234222 | 17 | 232 | 0.0 | 0.0 | 0.00 | 0.00 | 0.00 | 75 | 1013.3 |
| 20260830233705 | 17 | 232 | 0.0 | 0.0 | 0.00 | 0.00 | 0.00 | 74 | 1013.3 |
| 20260830233224 | 17 | 232 | 0.0 | 0.0 | 0.00 | 0.00 | 0.00 | 74 | 1013.3 |
| 20260830232710 | 17 | 232 | 0.0 | 0.0 | 0.00 | 0.00 | 0.00 | 74 | 1013.3 |
| 20260830232212 | 17 | 232 | 0.0 | 0.0 | 0.00 | 0.00 | 0.00 | 74 | 1013.3 |
| 20260830231721 | 17 | 232 | 0.0 | 0.0 | 0.00 | 0.00 | 0.00 | 74 | 1013.3 |
| 20260830231220 | 17 | 232 | 0.0 | 0.0 | 0.00 | 0.00 | 0.00 | 74 | 1013.6 |
| 20260830230709 | 17 | 232 | 0.0 | 0.0 | 0.00 | 0.00 | 0.00 | 74 | 1013.6 |
| 20260830230215 | 17 | 232 | 0.0 | 0.0 | 0.00 | 0.00 | 0.00 | 74 | 1013.6 |
| 20260830225716 | 17 | 232 | 0.0 | 0.0 | 0.00 | 0.00 | 0.00 | 74 | 1013.3 |
| 20260830225219 | 17 | 232 | 0.0 | 0.0 | 0.00 | 0.00 | 0.00 | 74 | 1013.3 |
| 20260830224716 | 18 | 232 | 0.0 | 0.0 | 0.00 | 0.00 | 0.00 | 74 | 1013.3 |
| 20260830224224 | 18 | 232 | 0.0 | 0.0 | 0.00 | 0.00 | 0.00 | 74 | 1013.6 |
| 20260830223726 | 18 | 232 | 0.0 | 0.0 | 0.00 | 0.00 | 0.00 | 74 | 1013.6 |
| 20260830223223 | 18 | 232 | 0.0 | 0.0 | 0.00 | 0.00 | 0.00 | 74 | 1013.6 |
| 20260830222712 | 18 | 232 | 0.0 | 0.0 | 0.00 | 0.00 | 0.00 | 74 | 1013.6 |
| 20260830222218 | 18 | 232 | 0.0 | 0.0 | 0.00 | 0.00 | 0.00 | 74 | 1013.6 |
| 20260830221724 | 18 | 232 | 0.0 | 0.0 | 0.00 | 0.00 | 0.00 | 74 | 1013.6 |
| 20260830221214 | 18 | 232 | 0.0 | 0.0 | 0.00 | 0.00 | 0.00 | 74 | 1013.9 |
| 20260830220724 | 18 | 232 | 0.0 | 0.0 | 0.00 | 0.00 | 0.00 | 73 | 1013.9 |
| 20260830220210 | 18 | 232 | 0.0 | 0.0 | 0.00 | 0.00 | 0.00 | 73 | 1013.9 |
| 20260830215712 | 18 | 232 | 0.0 | 0.0 | 0.00 | 0.00 | 0.00 | 73 | 1014.0 |
| 20260830215220 | 18 | 232 | 0.0 | 0.0 | 0.00 | 0.00 | 0.00 | 73 | 1014.0 |
| 20260830214722 | 18 | 232 | 0.0 | 0.0 | 0.00 | 0.00 | 0.00 | 72 | 1014.0 |
| 20260830214208 | 18 | 232 | 0.0 | 0.0 | 0.00 | 0.00 | 0.00 | 72 | 1014.0 |
| 20260830213718 | 18 | 232 | 0.0 | 0.0 | 0.00 | 0.00 | 0.00 | 72 | 1014.0 |
| 20260830213216 | 18 | 232 | 0.0 | 0.0 | 0.00 | 0.00 | 0.00 | 72 | 1014.0 |
| 20260830212724 | 18 | 232 | 0.0 | 0.0 | 0.00 | 0.00 | 0.00 | 72 | 1014.0 |
| 20260830212208 | 18 | 232 | 0.0 | 0.0 | 0.00 | 0.00 | 0.00 | 72 | 1014.0 |
| 20260830211714 | 18 | 232 | 0.0 | 0.0 | 0.00 | 0.00 | 0.00 | 72 | 1014.0 |
| 20260830211217 | 18 | 235 | 0.0 | 0.0 | 0.00 | 0.00 | 0.00 | 71 | 1014.1 |
| 20260830210719 | 18 | 234 | 0.0 | 0.0 | 0.00 | 0.00 | 0.00 | 71 | 1014.1 |
| 20260830210225 | 18 | 235 | 0.0 | 0.0 | 0.00 | 0.00 | 0.00 | 71 | 1014.1 |
| 20260830205711 | 18 | 235 | 0.0 | 0.0 | 0.00 | 0.00 | 0.00 | 71 | 1014.2 |
| 20260830205217 | 18 | 234 | 0.0 | 0.0 | 0.00 | 0.00 | 0.00 | 70 | 1014.2 |
| 20260830204725 | 18 | 234 | 0.0 | 0.0 | 0.00 | 0.00 | 0.00 | 70 | 1014.2 |
| 20260830204227 | 18 | 235 | 0.0 | 0.0 | 0.00 | 0.00 | 0.00 | 71 | 1014.2 |
| 20260830203710 | 18 | 235 | 0.0 | 0.0 | 0.00 | 0.00 | 0.00 | 70 | 1014.2 |
| 20260830203212 | 18 | 235 | 0.0 | 0.0 | 0.00 | 0.00 | 0.00 | 69 | 1014.2 |
| 20260830202719 | 18 | 236 | 0.0 | 0.0 | 0.00 | 0.00 | 0.00 | 70 | 1014.2 |
| 20260830202217 | 18 | 235 | 0.0 | 0.0 | 0.00 | 0.00 | 0.00 | 70 | 1014.2 |
| 20260830201720 | 19 | 235 | 0.0 | 0.0 | 0.00 | 0.00 | 0.00 | 70 | 1014.2 |
| 20260830201211 | 19 | 360 | 0.0 | 0.0 | 0.00 | 0.00 | 0.00 | 69 | 1014.5 |
| 20260830200723 | 19 | 234 | 0.0 | 0.0 | 0.00 | 0.00 | 0.00 | 69 | 1014.5 |
| 20260830200224 | 19 | 234 | 0.0 | 0.0 | 0.00 | 0.00 | 0.00 | 69 | 1014.5 |
| 20260830195721 | 19 | 360 | 0.0 | 0.0 | 0.00 | 0.00 | 0.00 | 69 | 1014.4 |
| 20260830195212 | 19 | 190 | 0.0 | 0.0 | 0.00 | 0.00 | 0.00 | 68 | 1014.4 |
| 20260830194722 | 19 | 190 | 0.0 | 0.0 | 0.00 | 0.00 | 0.00 | 68 | 1014.4 |
| 20260830194210 | 20 | 223 | 0.0 | 0.0 | 0.00 | 0.00 | 0.00 | 67 | 1014.3 |
| 20260830193719 | 20 | 223 | 0.0 | 0.0 | 0.00 | 0.00 | 0.00 | 67 | 1014.3 |
| 20260830193211 | 20 | 232 | 0.0 | 0.0 | 0.00 | 0.00 | 0.00 | 67 | 1014.3 |
| 20260830192713 | 20 | 223 | 0.0 | 0.0 | 0.00 | 0.00 | 0.00 | 67 | 1014.3 |
| 20260830192216 | 20 | 223 | 0.0 | 0.0 | 0.00 | 0.00 | 0.00 | 66 | 1014.3 |
| 20260830191721 | 20 | 224 | 0.0 | 0.0 | 0.00 | 0.00 | 0.00 | 66 | 1014.3 |
| 20260830191210 | 20 | 360 | 0.0 | 0.0 | 0.00 | 0.00 | 0.00 | 65 | 1014.4 |
| 20260830190716 | 20 | 223 | 0.0 | 0.0 | 0.00 | 0.00 | 0.00 | 64 | 1014.4 |
| 20260830190221 | 21 | 224 | 0.0 | 0.0 | 0.00 | 0.00 | 0.00 | 64 | 1014.4 |
| 20260830185722 | 21 | 224 | 0.0 | 0.0 | 0.00 | 0.00 | 0.00 | 64 | 1014.4 |
| 20260830185225 | 21 | 224 | 0.0 | 0.0 | 0.00 | 0.00 | 0.00 | 63 | 1014.4 |
| 20260830184712 | 21 | 223 | 0.0 | 0.0 | 0.00 | 0.00 | 0.00 | 63 | 1014.4 |
| 20260830184220 | 21 | 224 | 0.0 | 0.0 | 0.00 | 0.00 | 0.00 | 62 | 1014.0 |
| 20260830183720 | 22 | 360 | 0.0 | 0.0 | 0.00 | 0.00 | 0.00 | 62 | 1014.0 |
| 20260830183221 | 22 | 224 | 0.0 | 0.0 | 0.00 | 0.00 | 0.00 | 61 | 1014.0 |
| 20260830182713 | 22 | 224 | 0.0 | 0.0 | 0.00 | 0.00 | 0.00 | 60 | 1013.8 |
| 20260830182219 | 22 | 224 | 0.0 | 0.0 | 0.00 | 0.00 | 0.00 | 60 | 1013.8 |
| 20260830181724 | 22 | 224 | 0.0 | 0.0 | 0.00 | 0.00 | 0.00 | 60 | 1013.8 |
| 20260830181217 | 22 | 224 | 0.0 | 0.0 | 0.00 | 0.00 | 0.00 | 59 | 1014.0 |
| 20260830180711 | 22 | 224 | 0.0 | 0.0 | 0.00 | 0.00 | 0.00 | 59 | 1014.0 |
| 20260830180206 | 22 | 360 | 0.0 | 0.0 | 0.00 | 0.00 | 0.00 | 58 | 1014.0 |
| 20260830175717 | 23 | 224 | 0.0 | 0.0 | 0.00 | 0.00 | 0.00 | 58 | 1014.0 |
| 20260830175223 | 23 | 225 | 0.0 | 0.0 | 0.00 | 0.00 | 0.00 | 57 | 1014.0 |
| 20260830174722 | 23 | 225 | 0.0 | 0.0 | 0.00 | 0.00 | 0.00 | 57 | 1014.0 |
| 20260830174220 | 23 | 225 | 0.0 | 0.0 | 0.00 | 0.00 | 0.00 | 57 | 1014.0 |
| 20260830173728 | 23 | 226 | 0.0 | 0.0 | 0.00 | 0.00 | 0.00 | 57 | 1014.0 |
| 20260830173211 | 23 | 217 | 0.0 | 0.0 | 0.00 | 0.00 | 0.00 | 56 | 1014.0 |
| 20260830172717 | 23 | 218 | 0.0 | 0.0 | 0.00 | 0.00 | 0.00 | 55 | 1013.8 |
| 20260830172222 | 23 | 207 | 0.0 | 0.0 | 0.00 | 0.00 | 0.00 | 55 | 1013.8 |
| 20260830171710 | 23 | 216 | 0.0 | 0.0 | 0.00 | 0.00 | 0.00 | 54 | 1013.8 |
| 20260830171215 | 23 | 272 | 1.6 | 0.0 | 0.00 | 0.00 | 0.00 | 54 | 1014.0 |
| 20260830170716 | 23 | 360 | 1.6 | 0.0 | 0.00 | 0.00 | 0.00 | 53 | 1014.0 |
| 20260830170222 | 23 | 269 | 0.0 | 0.0 | 0.00 | 0.00 | 0.00 | 53 | 1014.0 |
| 20260830165724 | 24 | 249 | 0.0 | 0.0 | 0.00 | 0.00 | 0.00 | 54 | 1014.0 |
| 20260830165226 | 24 | 360 | 1.6 | 0.0 | 0.00 | 0.00 | 0.00 | 54 | 1014.0 |
| 20260830164715 | 24 | 360 | 3.2 | 0.0 | 0.00 | 0.00 | 0.00 | 54 | 1014.0 |
| 20260830164214 | 24 | 269 | 3.2 | 0.0 | 0.00 | 0.00 | 0.00 | 53 | 1014.0 |
| 20260830163716 | 24 | 273 | 3.2 | 0.0 | 0.00 | 0.00 | 0.00 | 53 | 1014.0 |
| 20260830163224 | 24 | 360 | 3.2 | 0.0 | 0.00 | 0.00 | 0.00 | 53 | 1014.0 |
| 20260830162712 | 24 | 187 | 3.2 | 0.0 | 0.00 | 0.00 | 0.00 | 53 | 1014.0 |
| 20260830162214 | 24 | 236 | 3.2 | 0.0 | 0.00 | 0.00 | 0.00 | 53 | 1014.0 |
| 20260830161722 | 24 | 246 | 3.2 | 0.0 | 0.00 | 0.00 | 0.00 | 53 | 1014.0 |
| 20260830161211 | 25 | 245 | 3.2 | 0.0 | 0.00 | 0.00 | 0.00 | 51 | 1014.0 |
| 20260830160712 | 25 | 275 | 1.6 | 0.0 | 0.00 | 0.00 | 0.00 | 52 | 1014.0 |
| 20260830160221 | 25 | 169 | 4.8 | 0.0 | 0.00 | 0.00 | 0.00 | 51 | 1014.0 |
| 20260830155713 | 25 | 360 | 3.2 | 0.0 | 0.00 | 0.00 | 0.00 | 51 | 1014.1 |
| 20260830155216 | 25 | 192 | 3.2 | 0.0 | 0.00 | 0.00 | 0.00 | 51 | 1014.1 |
| 20260830154722 | 25 | 211 | 3.2 | 0.0 | 0.00 | 0.00 | 0.00 | 51 | 1014.1 |
| 20260830154207 | 25 | 360 | 1.6 | 0.0 | 0.00 | 0.00 | 0.00 | 51 | 1014.3 |
| 20260830153716 | 25 | 236 | 1.6 | 0.0 | 0.00 | 0.00 | 0.00 | 51 | 1014.3 |
| 20260830153221 | 25 | 360 | 3.2 | 0.0 | 0.00 | 0.00 | 0.00 | 51 | 1014.3 |
| 20260830152723 | 25 | 360 | 4.8 | 0.0 | 0.00 | 0.00 | 0.00 | 52 | 1014.0 |
| 20260830152213 | 25 | 226 | 4.8 | 0.0 | 0.00 | 0.00 | 0.00 | 53 | 1014.0 |
| 20260830151722 | 25 | 360 | 6.4 | 0.0 | 0.00 | 0.00 | 0.00 | 51 | 1014.0 |
| 20260830151224 | 25 | 270 | 8.0 | 0.0 | 0.00 | 0.00 | 0.00 | 53 | 1014.0 |
| 20260830150711 | 25 | 360 | 8.0 | 0.0 | 0.00 | 0.00 | 0.00 | 54 | 1014.0 |
| 20260830150220 | 25 | 269 | 9.7 | 0.0 | 0.00 | 0.00 | 0.00 | 53 | 1014.0 |
| 20260830145720 | 25 | 360 | 8.0 | 0.0 | 0.00 | 0.00 | 0.00 | 52 | 1013.9 |
| 20260830145214 | 25 | 269 | 8.0 | 0.0 | 0.00 | 0.00 | 0.00 | 53 | 1013.9 |
| 20260830144724 | 25 | 281 | 8.0 | 0.0 | 0.00 | 0.00 | 0.00 | 52 | 1013.9 |
| 20260830144219 | 25 | 360 | 3.2 | 0.0 | 0.00 | 0.00 | 0.00 | 52 | 1013.9 |
| 20260830143712 | 26 | 360 | 3.2 | 0.0 | 0.00 | 0.00 | 0.00 | 51 | 1013.9 |
| 20260830143227 | 26 | 258 | 4.8 | 0.0 | 0.00 | 0.00 | 0.00 | 51 | 1013.9 |
| 20260830142729 | 26 | 360 | 3.2 | 0.0 | 0.00 | 0.00 | 0.00 | 51 | 1013.9 |
| 20260830142215 | 26 | 248 | 3.2 | 0.0 | 0.00 | 0.00 | 0.00 | 51 | 1013.9 |
| 20260830141713 | 26 | 298 | 4.8 | 0.0 | 0.00 | 0.00 | 0.00 | 51 | 1013.9 |
| 20260830141216 | 25 | 168 | 4.8 | 0.0 | 0.00 | 0.00 | 0.00 | 53 | 1013.9 |
| 20260830140716 | 25 | 275 | 3.2 | 0.0 | 0.00 | 0.00 | 0.00 | 53 | 1013.9 |
| 20260830140219 | 26 | 294 | 3.2 | 0.0 | 0.00 | 0.00 | 0.00 | 53 | 1013.9 |
| 20260830135710 | 26 | 344 | 6.4 | 0.0 | 0.00 | 0.00 | 0.00 | 52 | 1014.0 |
| 20260830135219 | 26 | 205 | 8.0 | 0.0 | 0.00 | 0.00 | 0.00 | 52 | 1014.0 |
| 20260830134721 | 25 | 323 | 4.8 | 0.0 | 0.00 | 0.00 | 0.00 | 51 | 1014.0 |
| 20260830134226 | 25 | 360 | 6.4 | 0.0 | 0.00 | 0.00 | 0.00 | 52 | 1014.1 |
| 20260830133713 | 25 | 292 | 4.8 | 0.0 | 0.00 | 0.00 | 0.00 | 52 | 1014.1 |
| 20260830133228 | 25 | 284 | 3.2 | 0.0 | 0.00 | 0.00 | 0.00 | 52 | 1014.1 |
| 20260830132729 | 26 | 294 | 6.4 | 0.0 | 0.00 | 0.00 | 0.00 | 50 | 1014.4 |
| 20260830132214 | 26 | 360 | 9.7 | 0.0 | 0.00 | 0.00 | 0.00 | 51 | 1014.4 |
| 20260830131719 | 26 | 279 | 8.0 | 0.0 | 0.00 | 0.00 | 0.00 | 50 | 1014.4 |
| 20260830131222 | 26 | 360 | 3.2 | 0.0 | 0.00 | 0.00 | 0.00 | 48 | 1014.4 |
| 20260830130727 | 26 | 313 | 6.4 | 0.0 | 0.00 | 0.00 | 0.00 | 53 | 1014.4 |
| 20260830130207 | 26 | 286 | 8.0 | 0.0 | 0.00 | 0.00 | 0.00 | 52 | 1014.4 |
| 20260830125707 | 26 | 285 | 8.0 | 0.0 | 0.00 | 0.00 | 0.00 | 53 | 1014.5 |
| 20260830125214 | 25 | 269 | 9.7 | 0.0 | 0.00 | 0.00 | 0.00 | 53 | 1014.5 |
| 20260830124707 | 25 | 277 | 8.0 | 0.0 | 0.00 | 0.00 | 0.00 | 50 | 1014.5 |
| 20260830124222 | 25 | 274 | 8.0 | 0.0 | 0.00 | 0.00 | 0.00 | 52 | 1014.5 |
| 20260830123715 | 25 | 360 | 11.3 | 0.0 | 0.00 | 0.00 | 0.00 | 51 | 1014.5 |
| 20260830123229 | 25 | 360 | 8.0 | 0.0 | 0.00 | 0.00 | 0.00 | 51 | 1014.5 |
| 20260830122711 | 25 | 360 | 9.7 | 0.0 | 0.00 | 0.00 | 0.00 | 51 | 1014.6 |
| 20260830122211 | 25 | 308 | 9.7 | 0.0 | 0.00 | 0.00 | 0.00 | 52 | 1014.6 |
| 20260830121707 | 25 | 360 | 8.0 | 0.0 | 0.00 | 0.00 | 0.00 | 54 | 1014.6 |
| 20260830121229 | 24 | 302 | 9.7 | 0.0 | 0.00 | 0.00 | 0.00 | 53 | 1014.8 |
| 20260830120711 | 25 | 276 | 6.4 | 0.0 | 0.00 | 0.00 | 0.00 | 52 | 1014.8 |
| 20260830120210 | 25 | 360 | 3.2 | 0.0 | 0.00 | 0.00 | 0.00 | 53 | 1014.8 |
| 20260830115721 | 26 | 290 | 4.8 | 0.0 | 0.00 | 0.00 | 0.00 | 51 | 1014.8 |
| 20260830115228 | 25 | 275 | 6.4 | 0.0 | 0.00 | 0.00 | 0.00 | 55 | 1014.8 |
| 20260830114726 | 25 | 274 | 4.8 | 0.0 | 0.00 | 0.00 | 0.00 | 50 | 1014.8 |
| 20260830114209 | 25 | 298 | 3.2 | 0.0 | 0.00 | 0.00 | 0.00 | 51 | 1014.8 |
| 20260830113718 | 25 | 360 | 4.8 | 0.0 | 0.00 | 0.00 | 0.00 | 51 | 1014.8 |
| 20260830113224 | 25 | 360 | 8.0 | 0.0 | 0.00 | 0.00 | 0.00 | 50 | 1014.8 |
| 20260830112724 | 25 | 255 | 9.7 | 0.0 | 0.00 | 0.00 | 0.00 | 53 | 1015.0 |
| 20260830112209 | 25 | 360 | 6.4 | 0.0 | 0.00 | 0.00 | 0.00 | 51 | 1015.0 |
| 20260830111712 | 25 | 281 | 4.8 | 0.0 | 0.00 | 0.00 | 0.00 | 51 | 1015.0 |
| 20260830111211 | 25 | 153 | 6.4 | 0.0 | 0.00 | 0.00 | 0.00 | 50 | 1015.1 |
| 20260830110712 | 25 | 204 | 6.4 | 0.0 | 0.00 | 0.00 | 0.00 | 51 | 1015.1 |
| 20260830110219 | 25 | 190 | 6.4 | 0.0 | 0.00 | 0.00 | 0.00 | 52 | 1015.1 |
| 20260830105727 | 25 | 360 | 6.4 | 0.0 | 0.00 | 0.00 | 0.00 | 51 | 1015.2 |
| 20260830105209 | 25 | 232 | 8.0 | 0.0 | 0.00 | 0.00 | 0.00 | 50 | 1015.2 |
| 20260830104712 | 25 | 360 | 6.4 | 0.0 | 0.00 | 0.00 | 0.00 | 53 | 1015.2 |
| 20260830104215 | 25 | 272 | 1.6 | 0.0 | 0.00 | 0.00 | 0.00 | 51 | 1014.5 |
| 20260830103721 | 24 | 133 | 4.8 | 0.0 | 0.00 | 0.00 | 0.00 | 51 | 1014.5 |
| 20260830103222 | 24 | 287 | 6.4 | 0.0 | 0.00 | 0.00 | 0.00 | 51 | 1014.5 |
| 20260830102720 | 24 | 275 | 6.4 | 0.0 | 0.00 | 0.00 | 0.00 | 52 | 1014.8 |
| 20260830102219 | 24 | 273 | 6.4 | 0.0 | 0.00 | 0.00 | 0.00 | 52 | 1014.8 |
| 20260830101728 | 24 | 233 | 8.0 | 0.0 | 0.00 | 0.00 | 0.00 | 51 | 1014.8 |
| 20260830101226 | 24 | 360 | 8.0 | 0.0 | 0.00 | 0.00 | 0.00 | 51 | 1014.9 |
| 20260830100729 | 24 | 296 | 6.4 | 0.0 | 0.00 | 0.00 | 0.00 | 52 | 1014.9 |
| 20260830100209 | 23 | 0.0 | 0.0 | 0.00 | 0.00 | 0.00 | 51 | 1014.9 | |
| 20260830095714 | 24 | 360 | 3.2 | 0.0 | 0.00 | 0.00 | 0.00 | 50 | 1014.8 |
| 20260830095212 | 24 | 204 | 4.8 | 0.0 | 0.00 | 0.00 | 0.00 | 52 | 1014.8 |
| 20260830094722 | 23 | 163 | 4.8 | 0.0 | 0.00 | 0.00 | 0.00 | 53 | 1014.8 |
| 20260830094217 | 23 | 360 | 6.4 | 0.0 | 0.00 | 0.00 | 0.00 | 55 | 1015.0 |
| 20260830093725 | 23 | 360 | 11.3 | 0.0 | 0.00 | 0.00 | 0.00 | 54 | 1015.0 |
| 20260830093225 | 23 | 360 | 12.9 | 0.0 | 0.00 | 0.00 | 0.00 | 56 | 1015.0 |
| 20260830092709 | 23 | 309 | 8.0 | 0.0 | 0.00 | 0.00 | 0.00 | 55 | 1015.0 |
| 20260830092219 | 23 | 272 | 3.2 | 0.0 | 0.00 | 0.00 | 0.00 | 56 | 1015.0 |
| 20260830091725 | 23 | 360 | 3.2 | 0.0 | 0.00 | 0.00 | 0.00 | 58 | 1015.0 |
| 20260830091214 | 23 | 275 | 1.6 | 0.0 | 0.00 | 0.00 | 0.00 | 56 | 1015.0 |
| 20260830090722 | 23 | 209 | 3.2 | 0.0 | 0.00 | 0.00 | 0.00 | 57 | 1015.0 |
| 20260830090222 | 23 | 244 | 4.8 | 0.0 | 0.00 | 0.00 | 0.00 | 56 | 1015.0 |
| 20260830085724 | 22 | 279 | 3.2 | 0.0 | 0.00 | 0.00 | 0.00 | 57 | 1015.0 |
| 20260830085216 | 22 | 360 | 3.2 | 0.0 | 0.00 | 0.00 | 0.00 | 58 | 1015.0 |
| 20260830084717 | 22 | 360 | 6.4 | 0.0 | 0.00 | 0.00 | 0.00 | 60 | 1015.0 |
| 20260830084223 | 22 | 290 | 8.0 | 0.0 | 0.00 | 0.00 | 0.00 | 60 | 1015.1 |
| 20260830083724 | 22 | 280 | 6.4 | 0.0 | 0.00 | 0.00 | 0.00 | 61 | 1015.1 |
| 20260830083209 | 22 | 280 | 9.7 | 0.0 | 0.00 | 0.00 | 0.00 | 61 | 1015.1 |
| 20260830082715 | 22 | 360 | 8.0 | 0.0 | 0.00 | 0.00 | 0.00 | 60 | 1015.3 |
| 20260830082222 | 21 | 245 | 6.4 | 0.0 | 0.00 | 0.00 | 0.00 | 62 | 1015.3 |
| 20260830081714 | 21 | 260 | 8.0 | 0.0 | 0.00 | 0.00 | 0.00 | 62 | 1015.3 |
| 20260830081216 | 21 | 175 | 9.7 | 0.0 | 0.00 | 0.00 | 0.00 | 62 | 1015.0 |
| 20260830080717 | 21 | 273 | 9.7 | 0.0 | 0.00 | 0.00 | 0.00 | 61 | 1015.0 |
| 20260830080224 | 21 | 360 | 6.4 | 0.0 | 0.00 | 0.00 | 0.00 | 61 | 1015.0 |
| 20260830075711 | 21 | 271 | 8.0 | 0.0 | 0.00 | 0.00 | 0.00 | 62 | 1015.0 |
| 20260830075217 | 21 | 326 | 8.0 | 0.0 | 0.00 | 0.00 | 0.00 | 62 | 1015.0 |
| 20260830074726 | 21 | 313 | 6.4 | 0.0 | 0.00 | 0.00 | 0.00 | 63 | 1015.0 |
| 20260830074217 | 21 | 241 | 4.8 | 0.0 | 0.00 | 0.00 | 0.00 | 61 | 1015.2 |
| 20260830073722 | 21 | 360 | 3.2 | 0.0 | 0.00 | 0.00 | 0.00 | 62 | 1015.2 |
| 20260830073208 | 21 | 360 | 3.2 | 0.0 | 0.00 | 0.00 | 0.00 | 62 | 1015.2 |
| 20260830072718 | 21 | 257 | 4.8 | 0.0 | 0.00 | 0.00 | 0.00 | 63 | 1015.0 |
| 20260830072226 | 20 | 360 | 4.8 | 0.0 | 0.00 | 0.00 | 0.00 | 63 | 1015.0 |
| 20260830071712 | 20 | 142 | 3.2 | 0.0 | 0.00 | 0.00 | 0.00 | 63 | 1015.0 |
| 20260830071218 | 20 | 240 | 4.8 | 0.0 | 0.00 | 0.00 | 0.00 | 63 | 1014.9 |
| 20260830070727 | 20 | 248 | 3.2 | 0.0 | 0.00 | 0.00 | 0.00 | 63 | 1014.9 |
| 20260830070215 | 20 | 229 | 3.2 | 0.0 | 0.00 | 0.00 | 0.00 | 65 | 1014.9 |
| 20260830065721 | 20 | 251 | 3.2 | 0.0 | 0.00 | 0.00 | 0.00 | 64 | 1015.0 |
| 20260830065226 | 20 | 203 | 1.6 | 0.0 | 0.00 | 0.00 | 0.00 | 66 | 1015.0 |
| 20260830064729 | 20 | 360 | 1.6 | 0.0 | 0.00 | 0.00 | 0.00 | 67 | 1015.0 |
| 20260830064229 | 19 | 253 | 0.0 | 0.0 | 0.00 | 0.00 | 0.00 | 67 | 1015.1 |
| 20260830063708 | 18 | 360 | 0.0 | 0.0 | 0.00 | 0.00 | 0.00 | 69 | 1015.1 |
| 20260830063215 | 18 | 197 | 0.0 | 0.0 | 0.00 | 0.00 | 0.00 | 74 | 1015.1 |
| 20260830062720 | 17 | 191 | 0.0 | 0.0 | 0.00 | 0.00 | 0.00 | 75 | 1015.2 |
| 20260830062226 | 17 | 191 | 0.0 | 0.0 | 0.00 | 0.00 | 0.00 | 76 | 1015.2 |
| 20260830061715 | 17 | 191 | 0.0 | 0.0 | 0.00 | 0.00 | 0.00 | 76 | 1015.2 |
| 20260830061211 | 17 | 198 | 0.0 | 0.0 | 0.00 | 0.00 | 0.00 | 77 | 1015.2 |
| 20260830060720 | 17 | 360 | 0.0 | 0.0 | 0.00 | 0.00 | 0.00 | 77 | 1015.2 |
| 20260830060224 | 17 | 196 | 0.0 | 0.0 | 0.00 | 0.00 | 0.00 | 78 | 1015.2 |
| 20260830055713 | 16 | 234 | 0.0 | 0.0 | 0.00 | 0.00 | 0.00 | 79 | 1015.3 |
| 20260830055223 | 16 | 233 | 0.0 | 0.0 | 0.00 | 0.00 | 0.00 | 79 | 1015.3 |
| 20260830054721 | 16 | 233 | 0.0 | 0.0 | 0.00 | 0.00 | 0.00 | 78 | 1015.3 |
| 20260830054227 | 16 | 234 | 0.0 | 0.0 | 0.00 | 0.00 | 0.00 | 78 | 1015.3 |
| 20260830053726 | 16 | 234 | 1.6 | 0.0 | 0.00 | 0.00 | 0.00 | 78 | 1015.3 |
| 20260830053226 | 16 | 270 | 1.6 | 0.0 | 0.00 | 0.00 | 0.00 | 78 | 1015.3 |
| 20260830052712 | 16 | 190 | 0.0 | 0.0 | 0.00 | 0.00 | 0.00 | 78 | 1015.3 |
| 20260830052212 | 16 | 186 | 0.0 | 0.0 | 0.00 | 0.00 | 0.00 | 78 | 1015.3 |
| 20260830051715 | 16 | 186 | 0.0 | 0.0 | 0.00 | 0.00 | 0.00 | 78 | 1015.3 |
| 20260830051219 | 16 | 186 | 0.0 | 0.0 | 0.00 | 0.00 | 0.00 | 78 | 1015.1 |
| 20260830050722 | 16 | 184 | 0.0 | 0.0 | 0.00 | 0.00 | 0.00 | 78 | 1015.1 |
| 20260830050227 | 16 | 184 | 0.0 | 0.0 | 0.00 | 0.00 | 0.00 | 77 | 1015.1 |
| 20260830045711 | 16 | 185 | 0.0 | 0.0 | 0.00 | 0.00 | 0.00 | 77 | 1015.0 |
| 20260830045220 | 16 | 185 | 0.0 | 0.0 | 0.00 | 0.00 | 0.00 | 77 | 1015.0 |
| 20260830044723 | 16 | 184 | 0.0 | 0.0 | 0.00 | 0.00 | 0.00 | 77 | 1015.0 |
| 20260830044226 | 16 | 360 | 0.0 | 0.0 | 0.00 | 0.00 | 0.00 | 77 | 1014.9 |
| 20260830043711 | 16 | 184 | 0.0 | 0.0 | 0.00 | 0.00 | 0.00 | 77 | 1014.9 |
| 20260830043214 | 16 | 184 | 0.0 | 0.0 | 0.00 | 0.00 | 0.00 | 77 | 1014.9 |
| 20260830042716 | 16 | 185 | 0.0 | 0.0 | 0.00 | 0.00 | 0.00 | 77 | 1014.9 |
| 20260830042218 | 15 | 184 | 0.0 | 0.0 | 0.00 | 0.00 | 0.00 | 77 | 1014.9 |
| 20260830041726 | 15 | 360 | 0.0 | 0.0 | 0.00 | 0.00 | 0.00 | 76 | 1014.9 |
| 20260830041212 | 15 | 186 | 0.0 | 0.0 | 0.00 | 0.00 | 0.00 | 76 | 1014.9 |
| 20260830040715 | 15 | 186 | 0.0 | 0.0 | 0.00 | 0.00 | 0.00 | 76 | 1014.9 |
| 20260830040220 | 15 | 186 | 0.0 | 0.0 | 0.00 | 0.00 | 0.00 | 76 | 1014.9 |
| 20260830035722 | 15 | 186 | 0.0 | 0.0 | 0.00 | 0.00 | 0.00 | 76 | 1014.6 |
| 20260830035221 | 15 | 186 | 0.0 | 0.0 | 0.00 | 0.00 | 0.00 | 76 | 1014.6 |
| 20260830034709 | 15 | 186 | 0.0 | 0.0 | 0.00 | 0.00 | 0.00 | 76 | 1014.6 |
| 20260830034218 | 15 | 186 | 0.0 | 0.0 | 0.00 | 0.00 | 0.00 | 76 | 1014.6 |
| 20260830033721 | 15 | 360 | 0.0 | 0.0 | 0.00 | 0.00 | 0.00 | 76 | 1014.6 |
| 20260830033226 | 15 | 192 | 0.0 | 0.0 | 0.00 | 0.00 | 0.00 | 76 | 1014.6 |
| 20260830032715 | 15 | 190 | 0.0 | 0.0 | 0.00 | 0.00 | 0.00 | 76 | 1014.5 |
| 20260830032221 | 15 | 191 | 0.0 | 0.0 | 0.00 | 0.00 | 0.00 | 76 | 1014.5 |
| 20260830031724 | 15 | 194 | 0.0 | 0.0 | 0.00 | 0.00 | 0.00 | 76 | 1014.5 |
| 20260830031226 | 15 | 360 | 0.0 | 0.0 | 0.00 | 0.00 | 0.00 | 76 | 1014.5 |
| 20260830030726 | 15 | 196 | 0.0 | 0.0 | 0.00 | 0.00 | 0.00 | 76 | 1014.5 |
| 20260830030228 | 15 | 198 | 0.0 | 0.0 | 0.00 | 0.00 | 0.00 | 76 | 1014.5 |